createdAt,value
2019-02-16T00:01:34.661Z,94.30
2019-02-16T00:11:40.258Z,94.90
2019-02-16T00:21:45.990Z,94.20
2019-02-16T00:31:51.538Z,93.50
2019-02-16T00:41:57.190Z,94.10
2019-02-16T00:52:02.707Z,94.00
2019-02-16T01:02:08.341Z,94.00
2019-02-16T01:12:14.160Z,93.70
2019-02-16T01:22:19.824Z,94.00
2019-02-16T01:32:25.328Z,94.60
2019-02-16T01:42:30.964Z,94.50
2019-02-16T01:52:36.600Z,95.30
2019-02-16T02:02:42.074Z,95.50
2019-02-16T02:12:47.623Z,95.90
2019-02-16T02:22:53.230Z,95.80
2019-02-16T02:32:59.936Z,95.20
2019-02-16T02:43:05.638Z,94.40
2019-02-16T02:53:12.375Z,94.70
2019-02-16T03:03:17.876Z,94.90
2019-02-16T03:13:23.403Z,94.30
2019-02-16T03:23:29.373Z,93.90
2019-02-16T03:33:37.922Z,94.20
2019-02-16T03:43:43.579Z,95.10
2019-02-16T03:53:49.282Z,94.60
2019-02-16T04:04:00.814Z,95.10
2019-02-16T04:14:06.435Z,95.30
2019-02-16T04:24:11.960Z,94.90
2019-02-16T04:34:17.656Z,95.30
2019-02-16T04:44:23.259Z,95.50
2019-02-16T04:54:40.769Z,95.20
2019-02-16T05:04:46.370Z,95.70
2019-02-16T05:14:52.101Z,95.40
2019-02-16T05:24:57.818Z,95.90
2019-02-16T05:35:03.401Z,96.10
2019-02-16T05:45:09.805Z,96.40
2019-02-16T05:55:15.340Z,96.20
2019-02-16T06:05:24.707Z,96.00
2019-02-16T06:15:31.426Z,95.70
2019-02-16T06:25:37.018Z,94.90
2019-02-16T06:35:47.208Z,94.70
2019-02-16T06:45:52.814Z,94.40
2019-02-16T06:55:59.861Z,94.90
2019-02-16T07:06:05.447Z,94.30
2019-02-16T07:16:29.312Z,94.50
2019-02-16T07:26:37.120Z,94.10
2019-02-16T07:36:42.700Z,93.80
2019-02-16T07:46:53.519Z,93.10
2019-02-16T07:57:01.119Z,93.30
2019-02-16T08:07:24.081Z,92.60
2019-02-16T08:17:40.845Z,92.10
2019-02-16T08:27:47.906Z,92.00
2019-02-16T08:37:58.053Z,91.70
2019-02-16T08:48:07.978Z,90.50
2019-02-16T08:58:30.709Z,88.60
2019-02-16T09:08:47.034Z,87.60
2019-02-16T09:18:57.020Z,84.30
2019-02-16T09:29:09.992Z,80.90
2019-02-16T09:39:17.127Z,76.90
2019-02-16T09:49:24.227Z,73.60
2019-02-16T09:59:31.513Z,74.20
2019-02-16T10:09:38.803Z,68.70
2019-02-16T10:19:47.152Z,67.70
2019-02-16T10:29:54.357Z,63.80
2019-02-16T10:40:04.545Z,60.60
2019-02-16T10:50:20.946Z,56.80
2019-02-16T11:00:28.160Z,57.70
2019-02-16T11:10:38.419Z,55.10
2019-02-16T11:20:52.712Z,52.90
2019-02-16T11:31:09.054Z,50.60
2019-02-16T11:41:25.264Z,50.70
2019-02-16T11:51:44.217Z,47.10
2019-02-16T12:01:54.611Z,48.00
2019-02-16T12:12:10.914Z,46.10
2019-02-16T12:22:18.034Z,46.00
2019-02-16T12:32:32.545Z,42.90
2019-02-16T12:42:42.309Z,39.30
2019-02-16T12:53:05.474Z,38.80
2019-02-16T13:03:24.756Z,37.30
2019-02-16T13:13:31.957Z,36.20
2019-02-16T13:23:48.211Z,39.10
2019-02-16T13:33:55.417Z,36.80
2019-02-16T15:05:42.207Z,39.30
2019-02-16T15:15:47.843Z,40.60
2019-02-16T15:26:00.727Z,37.30
2019-02-16T15:36:06.813Z,39.70
2019-02-16T15:46:12.349Z,38.80
2019-02-16T15:56:18.119Z,39.10
2019-02-16T16:06:24.106Z,41.00
2019-02-16T16:16:43.752Z,44.70
2019-02-16T16:26:50.907Z,48.20
2019-02-16T16:37:09.314Z,51.40
2019-02-16T16:47:23.058Z,53.70
2019-02-16T17:08:06.997Z,56.10
2019-02-16T17:18:23.289Z,55.30
2019-02-16T17:28:52.388Z,54.40
2019-02-16T17:39:02.475Z,55.60
2019-02-16T17:49:11.096Z,54.90
2019-02-16T17:59:18.761Z,54.20
2019-02-16T18:09:32.112Z,53.80
2019-02-16T18:19:54.993Z,55.00
2019-02-16T18:30:03.201Z,55.70
2019-02-16T18:40:22.301Z,57.80
2019-02-16T18:50:38.409Z,59.90
2019-02-16T19:00:45.792Z,63.90
2019-02-16T19:10:53.274Z,65.30
2019-02-16T19:21:03.325Z,67.60
2019-02-16T19:31:10.841Z,69.20
2019-02-16T19:41:24.328Z,70.20
2019-02-16T19:51:31.767Z,71.70
2019-02-16T20:01:48.473Z,73.90
2019-02-16T20:11:58.712Z,76.00
2019-02-16T20:22:09.357Z,76.80
2019-02-16T20:32:16.838Z,76.60
2019-02-16T20:42:24.411Z,76.90
2019-02-16T20:52:48.053Z,77.00
2019-02-16T21:03:17.309Z,77.80
2019-02-16T21:13:24.860Z,77.80
2019-02-16T21:23:52.672Z,78.40
2019-02-16T21:34:02.731Z,78.60
2019-02-16T21:44:28.348Z,77.30
2019-02-16T21:54:48.522Z,75.90
2019-02-16T22:04:58.959Z,74.10
2019-02-16T22:15:05.842Z,73.70
2019-02-16T22:25:11.654Z,72.90
2019-02-16T22:35:17.348Z,73.20
2019-02-16T22:45:23.573Z,71.40
2019-02-16T22:55:29.478Z,70.20
2019-02-16T23:05:35.078Z,69.70
2019-02-16T23:15:40.687Z,69.20
2019-02-16T23:25:46.496Z,69.30
2019-02-16T23:35:52.090Z,70.00
2019-02-16T23:46:00.146Z,67.90
2019-02-16T23:56:05.899Z,68.10
